createdAt,value
2022-08-04T00:05:52.635Z,24.2
2022-08-04T00:20:18.090Z,23.7
2022-08-04T00:34:46.824Z,23.7
2022-08-04T00:49:14.513Z,24
2022-08-04T01:03:42.627Z,24.2
2022-08-04T01:18:08.908Z,23.9
2022-08-04T01:32:42.758Z,23.5
2022-08-04T01:47:10.140Z,23.8
2022-08-04T02:01:34.654Z,23.5
2022-08-04T02:16:03.036Z,23.8
2022-08-04T02:30:28.396Z,23.7
2022-08-04T02:44:54.781Z,23.5
2022-08-04T02:59:22.950Z,23
2022-08-04T03:13:49.978Z,23.2
2022-08-04T03:28:17.757Z,22.9
2022-08-04T03:42:44.613Z,23
2022-08-04T03:57:12.608Z,22.5
2022-08-04T04:11:54.377Z,22.1
2022-08-04T04:26:15.040Z,22.2
2022-08-04T04:40:42.307Z,21.9
2022-08-04T04:55:10.094Z,22.1
2022-08-04T05:09:39.036Z,22.4
2022-08-04T05:24:07.081Z,22.6
2022-08-04T05:38:36.058Z,23
2022-08-04T05:53:10.546Z,23.2
2022-08-04T06:08:04.745Z,23.3
2022-08-04T06:22:22.505Z,23.4
2022-08-04T06:36:50.145Z,23.9
2022-08-04T06:51:29.033Z,24.7
2022-08-04T07:06:05.552Z,25.5
2022-08-04T07:20:37.476Z,26.2
2022-08-04T07:35:09.126Z,28.4
2022-08-04T07:50:29.390Z,33
2022-08-04T08:05:01.853Z,34.6
2022-08-04T08:19:31.998Z,34.5
2022-08-04T08:34:03.977Z,36.8
2022-08-04T08:48:35.794Z,36.4
2022-08-04T09:03:06.805Z,37.8
2022-08-04T09:17:41.388Z,39.5
2022-08-04T09:32:06.542Z,38.4
2022-08-04T09:46:25.353Z,36.5
2022-08-04T10:00:51.022Z,36.5
2022-08-04T10:15:18.628Z,36.4
2022-08-04T10:29:44.801Z,35.7
2022-08-04T10:44:15.043Z,36.5
2022-08-04T10:58:46.871Z,36
2022-08-04T11:13:22.271Z,35.8
2022-08-04T11:27:46.603Z,35.7
2022-08-04T11:42:14.290Z,35.3
2022-08-04T11:56:42.761Z,36.2
2022-08-04T12:11:09.816Z,35.3
2022-08-04T12:25:41.955Z,35.8
2022-08-04T12:40:27.965Z,34.9
2022-08-04T12:54:41.131Z,34.4
2022-08-04T13:09:09.327Z,34.4
2022-08-04T13:24:09.595Z,34.2
2022-08-04T13:38:38.825Z,34.5
2022-08-04T13:53:06.635Z,34.4
2022-08-04T14:07:35.072Z,34.3
2022-08-04T14:22:00.630Z,33.7
2022-08-04T14:36:29.085Z,33.8
2022-08-04T14:50:54.882Z,33.4
2022-08-04T15:05:55.839Z,33.2
2022-08-04T15:20:20.996Z,33
2022-08-04T15:34:48.608Z,33.3
2022-08-04T15:49:15.631Z,32.9
2022-08-04T16:03:52.939Z,33
2022-08-04T16:18:25.862Z,32.5
2022-08-04T16:32:46.967Z,32.3
2022-08-04T16:47:22.363Z,32
2022-08-04T17:01:42.903Z,31.5
2022-08-04T17:16:10.432Z,29.6
2022-08-04T17:30:35.839Z,28.6
2022-08-04T17:45:01.304Z,28
2022-08-04T17:59:52.129Z,28.4
2022-08-04T18:14:11.211Z,28.9
2022-08-04T18:28:37.248Z,28.3
2022-08-04T18:43:05.277Z,28.6
2022-08-04T18:57:32.255Z,28.3
2022-08-04T19:12:34.257Z,28.2
2022-08-04T19:26:57.300Z,27.8
2022-08-04T19:41:28.456Z,27.7
2022-08-04T19:55:52.211Z,27.5
2022-08-04T20:10:17.400Z,27.3
2022-08-04T20:24:54.835Z,27.2
2022-08-04T20:39:44.574Z,26.9
2022-08-04T20:54:22.876Z,26.3
2022-08-04T21:08:56.973Z,26.3
2022-08-04T21:23:18.007Z,26.1
2022-08-04T21:37:56.193Z,25.6
2022-08-04T21:52:19.825Z,25.5
2022-08-04T22:06:51.750Z,25.8
2022-08-04T22:38:49.844Z,25.7
2022-08-04T22:53:20.348Z,25.4
2022-08-04T23:07:49.106Z,25.2
2022-08-04T23:22:15.885Z,25.2
2022-08-04T23:36:55.396Z,25.1
2022-08-04T23:51:21.953Z,24.3
